Time;durP1;ratioP1;P1;durP2;ratioP2;P2;SDS_P1;SDS_P2;PMS_P1;PMS_P2;Temp;Humidity;BMP_temperature;BMP_pressure;BME280_temperature;BME280_humidity;BME280_pressure;Samples;Min_cycle;Max_cycle;Signal;HPM_P1;HPM_P2
2023/08/29 00:03:08;;;;;;;5.35;3.80;;;13.80;99.90;;;;;;7349775;32;20118;-55
2023/08/29 00:07:10;;;;;;;6.18;4.20;;;13.80;99.90;;;;;;7351537;32;20112;-55
2023/08/29 00:11:12;;;;;;;6.82;3.95;;;13.80;99.90;;;;;;7346371;32;20099;-56
2023/08/29 00:15:13;;;;;;;7.32;4.10;;;13.70;99.90;;;;;;7354806;32;20127;-56
2023/08/29 00:19:15;;;;;;;6.28;3.97;;;13.60;99.90;;;;;;7354589;32;20231;-55
2023/08/29 00:23:17;;;;;;;7.32;3.80;;;13.40;99.90;;;;;;7352239;32;20964;-55
2023/08/29 00:27:19;;;;;;;5.45;3.45;;;13.40;99.90;;;;;;7337994;32;20176;-55
2023/08/29 00:31:21;;;;;;;4.53;3.75;;;13.30;99.90;;;;;;7349597;32;20338;-55
2023/08/29 00:35:23;;;;;;;4.65;3.60;;;13.20;99.90;;;;;;7355134;32;20722;-55
2023/08/29 00:39:25;;;;;;;4.90;3.75;;;13.20;99.90;;;;;;7351554;32;20278;-55
2023/08/29 00:43:26;;;;;;;8.32;4.05;;;13.10;99.90;;;;;;7342127;32;20136;-55
2023/08/29 00:47:28;;;;;;;4.75;3.87;;;13.10;99.90;;;;;;7343687;32;20141;-55
2023/08/29 00:51:30;;;;;;;4.65;3.53;;;13.00;99.90;;;;;;7346780;32;20100;-55
2023/08/29 00:55:34;;;;;;;5.47;3.20;;;12.90;99.90;;;;;;7346327;32;20188;-55
2023/08/29 00:59:36;;;;;;;7.93;3.87;;;12.90;99.90;;;;;;7346916;32;20497;-55
2023/08/29 01:03:39;;;;;;;5.87;4.50;;;12.80;99.90;;;;;;7344718;32;20253;-55
2023/08/29 01:07:41;;;;;;;9.63;4.12;;;12.80;99.90;;;;;;7345447;32;20095;-54
2023/08/29 01:12:12;;;;;;;4.68;4.07;;;12.80;99.90;;;;;;7341124;32;20431;-55
2023/08/29 01:16:19;;;;;;;4.75;3.47;;;12.60;99.90;;;;;;7347595;32;20185;-57
2023/08/29 01:20:22;;;;;;;7.45;3.53;;;12.50;99.90;;;;;;7343407;32;20158;-59
2023/08/29 01:24:41;;;;;;;6.97;4.12;;;12.40;99.90;;;;;;7345482;32;20169;-57
2023/08/29 01:28:44;;;;;;;4.87;3.65;;;12.40;99.90;;;;;;7340986;32;20217;-57
2023/08/29 01:32:46;;;;;;;6.62;4.07;;;12.30;99.90;;;;;;7349313;32;20228;-57
2023/08/29 01:36:48;;;;;;;5.20;4.40;;;12.30;99.90;;;;;;7333343;32;20929;-55
2023/08/29 01:40:50;;;;;;;6.00;3.28;;;12.30;99.90;;;;;;7343516;32;20117;-57
2023/08/29 01:44:52;;;;;;;7.55;3.58;;;12.20;99.90;;;;;;7349814;32;20121;-54
2023/08/29 01:48:54;;;;;;;6.47;3.33;;;12.10;99.90;;;;;;7352662;32;20103;-55
2023/08/29 01:52:58;;;;;;;5.25;2.87;;;12.10;99.90;;;;;;7355501;32;20134;-55
2023/08/29 01:57:01;;;;;;;9.48;4.22;;;12.20;99.90;;;;;;7356059;32;20634;-55
2023/08/29 02:01:04;;;;;;;3.92;3.15;;;12.20;99.90;;;;;;7345841;32;20199;-54
2023/08/29 02:05:23;;;;;;;3.78;3.45;;;12.20;99.90;;;;;;7349163;32;20172;-55
2023/08/29 02:09:25;;;;;;;9.05;3.87;;;12.10;99.90;;;;;;7359615;32;20099;-55
2023/08/29 02:13:27;;;;;;;7.35;3.40;;;12.10;99.90;;;;;;7353449;32;20437;-57
2023/08/29 02:17:28;;;;;;;6.32;3.42;;;12.00;99.90;;;;;;7346567;32;20660;-55
2023/08/29 02:21:30;;;;;;;6.53;3.70;;;12.10;99.90;;;;;;7350772;32;20520;-55
2023/08/29 02:25:32;;;;;;;3.97;3.45;;;12.10;99.90;;;;;;7349659;32;20742;-56
2023/08/29 02:29:34;;;;;;;9.07;3.92;;;12.10;99.90;;;;;;7343262;32;20199;-55
2023/08/29 02:33:37;;;;;;;5.12;3.20;;;12.00;99.90;;;;;;7351376;32;20154;-55
2023/08/29 02:37:40;;;;;;;8.68;4.07;;;12.10;99.90;;;;;;7355907;32;20103;-55
2023/08/29 02:41:42;;;;;;;7.07;3.83;;;12.00;99.90;;;;;;7342023;32;20099;-55
2023/08/29 02:45:43;;;;;;;7.43;3.47;;;12.00;99.90;;;;;;7352369;32;20495;-55
2023/08/29 02:49:45;;;;;;;6.12;4.15;;;12.10;99.90;;;;;;7348438;32;20125;-55
2023/08/29 02:53:47;;;;;;;8.23;4.10;;;12.10;99.90;;;;;;7350205;32;20261;-56
2023/08/29 02:57:49;;;;;;;8.57;3.50;;;12.00;99.90;;;;;;7351284;32;20675;-55
2023/08/29 03:01:50;;;;;;;6.82;3.85;;;12.00;99.90;;;;;;7350015;32;20131;-55
2023/08/29 03:05:57;;;;;;;7.72;3.87;;;12.10;99.90;;;;;;7342110;32;20286;-55
2023/08/29 03:09:58;;;;;;;5.03;3.60;;;12.10;99.90;;;;;;7356877;32;20221;-55
2023/08/29 03:14:00;;;;;;;5.18;3.53;;;12.00;99.90;;;;;;7348149;32;20598;-55
2023/08/29 03:18:03;;;;;;;7.35;3.50;;;12.00;99.90;;;;;;7349510;32;20150;-55
2023/08/29 03:22:05;;;;;;;7.93;3.60;;;12.00;99.90;;;;;;7349069;32;20525;-55
2023/08/29 03:26:09;;;;;;;3.78;3.37;;;12.00;99.90;;;;;;7349271;32;20365;-55
2023/08/29 03:30:12;;;;;;;7.12;3.30;;;12.00;99.90;;;;;;7354082;32;20103;-55
2023/08/29 03:34:14;;;;;;;7.45;3.65;;;12.00;99.90;;;;;;7349846;32;20140;-55
2023/08/29 03:38:16;;;;;;;10.20;3.60;;;12.00;99.90;;;;;;7352978;32;20491;-55
2023/08/29 03:42:17;;;;;;;5.78;3.80;;;12.00;99.90;;;;;;7351399;32;20095;-56
2023/08/29 03:46:21;;;;;;;4.50;4.00;;;12.00;99.90;;;;;;7350085;32;20253;-55
2023/08/29 03:50:23;;;;;;;8.02;4.47;;;12.00;99.90;;;;;;7338600;32;20250;-56
2023/08/29 03:54:24;;;;;;;4.75;3.83;;;12.00;99.90;;;;;;7345501;32;20131;-55
2023/08/29 03:58:26;;;;;;;7.12;3.55;;;12.00;99.90;;;;;;7351961;32;20099;-55
2023/08/29 04:02:28;;;;;;;8.60;3.40;;;12.00;99.90;;;;;;7351392;32;20160;-56
2023/08/29 04:06:34;;;;;;;7.85;4.20;;;11.90;99.90;;;;;;7355079;32;20139;-55
2023/08/29 04:10:40;;;;;;;6.65;3.42;;;11.90;99.90;;;;;;7345865;32;20515;-54
2023/08/29 04:14:42;;;;;;;10.40;4.07;;;11.90;99.90;;;;;;7350265;32;20157;-55
2023/08/29 04:18:44;;;;;;;3.78;3.30;;;11.90;99.90;;;;;;7351697;32;20400;-55
2023/08/29 04:22:46;;;;;;;6.43;4.03;;;11.80;99.90;;;;;;7353174;32;20103;-55
2023/08/29 04:26:48;;;;;;;7.80;3.92;;;11.90;99.90;;;;;;7349385;32;20119;-55
2023/08/29 04:30:49;;;;;;;7.85;4.05;;;11.90;99.90;;;;;;7346014;32;20510;-57
2023/08/29 04:34:51;;;;;;;7.50;4.80;;;11.90;99.90;;;;;;7343022;32;20115;-56
2023/08/29 04:38:53;;;;;;;6.43;4.12;;;11.90;99.90;;;;;;7351006;32;20103;-55
2023/08/29 04:42:55;;;;;;;5.37;4.20;;;11.80;99.90;;;;;;7347415;32;20134;-55
2023/08/29 04:46:57;;;;;;;9.63;4.43;;;11.80;99.90;;;;;;7350702;32;20114;-56
2023/08/29 04:50:59;;;;;;;5.43;4.07;;;11.80;99.90;;;;;;7345678;32;20138;-57
2023/08/29 04:55:00;;;;;;;7.82;4.20;;;11.80;99.90;;;;;;7350273;32;20239;-56
2023/08/29 04:59:03;;;;;;;11.15;6.10;;;11.90;99.90;;;;;;7340764;32;20584;-56
2023/08/29 05:03:05;;;;;;;9.93;4.68;;;11.80;99.90;;;;;;7352141;32;20570;-57
2023/08/29 05:07:07;;;;;;;4.45;3.50;;;11.90;99.90;;;;;;7349709;32;20178;-56
2023/08/29 05:11:09;;;;;;;5.00;4.50;;;11.90;99.90;;;;;;7335658;32;20416;-57
2023/08/29 05:15:10;;;;;;;7.47;4.00;;;11.90;99.90;;;;;;7338623;32;20570;-56
2023/08/29 05:19:12;;;;;;;5.37;4.62;;;11.90;99.90;;;;;;7353211;32;20103;-56
2023/08/29 05:23:14;;;;;;;6.85;4.28;;;12.00;99.90;;;;;;7343307;32;20182;-56
2023/08/29 05:27:15;;;;;;;6.12;4.47;;;12.00;99.90;;;;;;7351902;32;20107;-56
2023/08/29 05:31:17;;;;;;;6.95;4.55;;;12.00;99.90;;;;;;7345271;32;20316;-56
2023/08/29 05:35:19;;;;;;;9.02;5.00;;;12.10;99.90;;;;;;7343253;32;20127;-56
2023/08/29 05:39:21;;;;;;;7.95;5.45;;;12.20;99.90;;;;;;7351833;32;20205;-56
2023/08/29 05:43:23;;;;;;;8.70;5.85;;;12.20;99.90;;;;;;7357058;32;20171;-56
2023/08/29 05:47:24;;;;;;;8.82;5.30;;;12.20;99.90;;;;;;7355516;32;20133;-56
2023/08/29 05:51:27;;;;;;;9.63;5.90;;;12.30;99.90;;;;;;7347890;32;20201;-55
2023/08/29 05:55:28;;;;;;;8.65;7.00;;;12.40;99.90;;;;;;7342795;32;20179;-56
2023/08/29 05:59:30;;;;;;;9.98;7.80;;;12.60;99.90;;;;;;7339572;32;20308;-57
2023/08/29 06:03:34;;;;;;;10.60;8.38;;;12.70;99.90;;;;;;7348346;32;20191;-57
2023/08/29 06:07:38;;;;;;;9.82;8.57;;;12.80;99.90;;;;;;7351346;32;20113;-56
2023/08/29 06:11:40;;;;;;;12.48;11.10;;;12.90;99.90;;;;;;7352928;32;20202;-56
2023/08/29 06:15:42;;;;;;;19.15;9.18;;;13.00;99.90;;;;;;7350800;32;20716;-57
2023/08/29 06:19:44;;;;;;;13.40;8.18;;;13.20;99.90;;;;;;7357642;32;20610;-56
2023/08/29 06:23:46;;;;;;;9.68;6.57;;;13.30;99.90;;;;;;7345523;32;20122;-57
2023/08/29 06:27:48;;;;;;;8.48;5.95;;;13.40;99.90;;;;;;7347920;32;20106;-57
2023/08/29 06:31:50;;;;;;;9.48;6.12;;;13.50;99.90;;;;;;7347397;32;20183;-56
2023/08/29 06:35:51;;;;;;;12.95;9.98;;;13.70;99.90;;;;;;7351234;32;20254;-57
2023/08/29 06:39:53;;;;;;;14.70;11.07;;;13.90;99.90;;;;;;7352366;32;20192;-57
2023/08/29 06:43:55;;;;;;;15.73;11.20;;;13.80;99.90;;;;;;7338089;32;20194;-57
2023/08/29 06:47:56;;;;;;;15.32;11.45;;;14.00;99.90;;;;;;7355230;32;20226;-57
2023/08/29 06:51:58;;;;;;;14.20;11.52;;;14.10;99.90;;;;;;7338844;32;20551;-57
2023/08/29 06:56:00;;;;;;;13.90;11.23;;;14.20;99.90;;;;;;7355629;32;20774;-56
2023/08/29 07:00:03;;;;;;;12.98;10.27;;;14.30;99.90;;;;;;7345214;32;20114;-57
2023/08/29 07:04:07;;;;;;;10.80;9.57;;;14.50;99.90;;;;;;7354096;32;20133;-57
2023/08/29 07:08:09;;;;;;;11.52;9.35;;;14.60;99.90;;;;;;7351232;32;20250;-57
2023/08/29 07:12:11;;;;;;;12.07;9.10;;;14.60;99.90;;;;;;7336058;32;20118;-56
2023/08/29 07:16:13;;;;;;;12.68;9.13;;;14.80;99.90;;;;;;7345976;32;20204;-56
2023/08/29 07:20:15;;;;;;;10.57;8.75;;;14.80;99.90;;;;;;7349981;32;20127;-56
2023/08/29 07:24:17;;;;;;;17.02;9.13;;;14.80;99.90;;;;;;7341957;32;20122;-58
2023/08/29 07:28:19;;;;;;;11.38;9.02;;;14.90;99.90;;;;;;7350492;32;20196;-57
2023/08/29 07:32:21;;;;;;;11.52;9.23;;;15.10;99.90;;;;;;7350812;32;20693;-57
2023/08/29 07:36:22;;;;;;;10.48;8.20;;;15.10;99.90;;;;;;7345209;32;20226;-57
2023/08/29 07:40:24;;;;;;;12.13;8.63;;;15.20;99.90;;;;;;7352857;32;20118;-57
2023/08/29 07:44:26;;;;;;;12.30;9.02;;;15.40;99.90;;;;;;7349947;32;20262;-57
2023/08/29 07:48:28;;;;;;;12.30;9.57;;;15.40;99.90;;;;;;7350579;32;20666;-57
2023/08/29 07:52:30;;;;;;;11.73;9.30;;;15.20;99.90;;;;;;7344387;32;20926;-57
2023/08/29 07:56:32;;;;;;;11.02;9.05;;;15.40;99.90;;;;;;7344671;32;20130;-57
2023/08/29 08:00:34;;;;;;;9.25;7.93;;;15.70;99.90;;;;;;7347764;32;20168;-57
2023/08/29 08:04:36;;;;;;;12.07;9.20;;;15.70;99.90;;;;;;7357869;32;20110;-57
2023/08/29 08:08:38;;;;;;;8.48;7.40;;;15.70;99.90;;;;;;7346310;32;21719;-57
2023/08/29 08:12:40;;;;;;;10.98;8.20;;;15.80;99.90;;;;;;7349481;32;20107;-57
2023/08/29 08:16:42;;;;;;;11.38;8.82;;;16.00;99.90;;;;;;7354165;32;20141;-57
2023/08/29 08:20:44;;;;;;;10.25;7.97;;;16.10;99.90;;;;;;7355476;32;20095;-57
2023/08/29 08:24:46;;;;;;;12.23;7.68;;;16.20;99.90;;;;;;7348064;32;20227;-57
2023/08/29 08:28:49;;;;;;;13.93;7.00;;;16.50;99.90;;;;;;7350844;32;20468;-57
2023/08/29 08:32:51;;;;;;;11.32;8.13;;;16.50;99.90;;;;;;7341882;32;20201;-57
2023/08/29 08:36:52;;;;;;;8.68;6.82;;;16.60;99.90;;;;;;7344214;32;20117;-58
2023/08/29 08:40:57;;;;;;;12.43;8.13;;;16.60;99.90;;;;;;7337394;32;20327;-57
2023/08/29 08:44:59;;;;;;;11.82;7.40;;;16.90;99.90;;;;;;7342372;32;20133;-56
2023/08/29 08:49:01;;;;;;;12.75;8.25;;;17.10;99.90;;;;;;7351954;32;20825;-57
2023/08/29 08:53:04;;;;;;;11.15;7.62;;;17.30;99.90;;;;;;7354604;32;20216;-57
2023/08/29 08:57:06;;;;;;;10.68;7.53;;;17.40;99.90;;;;;;7346810;32;20126;-57
2023/08/29 09:01:09;;;;;;;10.75;8.18;;;17.50;99.90;;;;;;7351573;32;20421;-57
2023/08/29 09:05:11;;;;;;;10.38;6.32;;;17.70;99.90;;;;;;7348614;32;20201;-58
2023/08/29 09:09:22;;;;;;;11.30;8.75;;;17.70;99.90;;;;;;7343523;32;20509;-57
2023/08/29 09:13:24;;;;;;;13.15;8.25;;;17.80;99.90;;;;;;7350268;32;20194;-57
2023/08/29 09:17:26;;;;;;;10.82;7.68;;;17.90;99.90;;;;;;7347988;32;20186;-57
2023/08/29 09:21:27;;;;;;;14.65;7.97;;;18.10;99.90;;;;;;7343718;32;20103;-57
2023/08/29 09:25:29;;;;;;;9.23;7.57;;;18.00;99.90;;;;;;7353394;32;20099;-57
2023/08/29 09:29:31;;;;;;;10.63;8.05;;;18.10;99.90;;;;;;7349271;32;20562;-58
2023/08/29 09:33:33;;;;;;;12.45;8.77;;;18.30;99.90;;;;;;7347079;32;20179;-57
2023/08/29 09:37:41;;;;;;;12.63;7.82;;;18.40;99.90;;;;;;7348022;32;20172;-57
2023/08/29 09:41:42;;;;;;;15.40;9.52;;;18.40;99.90;;;;;;7348729;32;20133;-56
2023/08/29 09:45:52;;;;;;;15.43;9.05;;;18.70;99.90;;;;;;7344378;32;20130;-57
2023/08/29 09:49:54;;;;;;;18.83;9.80;;;18.70;99.90;;;;;;7348764;32;20129;-56
2023/08/29 09:53:57;;;;;;;13.45;10.05;;;18.60;99.90;;;;;;7351692;32;20621;-56
2023/08/29 09:58:01;;;;;;;13.90;9.02;;;18.30;99.90;;;;;;7340052;32;20170;-57
2023/08/29 10:02:04;;;;;;;16.77;10.88;;;18.60;99.90;;;;;;7342846;32;20134;-56
2023/08/29 10:06:10;;;;;;;15.68;10.73;;;18.70;99.90;;;;;;7350723;32;20563;-57
2023/08/29 10:10:13;;;;;;;17.12;10.10;;;18.70;99.90;;;;;;7339076;32;21398;-56
2023/08/29 10:14:16;;;;;;;14.98;9.48;;;18.70;99.90;;;;;;7344389;32;20329;-57
2023/08/29 10:18:19;;;;;;;18.33;12.18;;;18.80;99.90;;;;;;7335679;32;21021;-57
2023/08/29 10:22:23;;;;;;;16.33;10.55;;;18.70;99.90;;;;;;7336726;32;21819;-57
2023/08/29 10:26:26;;;;;;;18.10;9.30;;;18.30;99.90;;;;;;7338265;32;20119;-58
2023/08/29 10:30:29;;;;;;;14.68;7.43;;;18.30;99.90;;;;;;7344475;32;20209;-57
2023/08/29 10:34:31;;;;;;;13.52;7.32;;;18.60;99.90;;;;;;7344565;32;20194;-58
2023/08/29 10:38:38;;;;;;;14.23;5.60;;;18.60;99.90;;;;;;7343848;32;20179;-57
2023/08/29 10:42:57;;;;;;;8.52;4.25;;;18.40;99.90;;;;;;7343488;32;20099;-57
2023/08/29 10:47:19;;;;;;;10.27;3.62;;;18.50;99.90;;;;;;7345941;32;20099;-56
2023/08/29 10:51:23;;;;;;;10.13;7.68;;;18.70;99.90;;;;;;7341246;32;20206;-56
2023/08/29 10:55:31;;;;;;;13.82;8.98;;;18.80;99.90;;;;;;7352518;32;20331;-56
2023/08/29 10:59:32;;;;;;;11.55;7.55;;;18.90;99.90;;;;;;7345696;32;20207;-56
2023/08/29 11:03:44;;;;;;;10.02;6.82;;;19.10;99.90;;;;;;7353837;32;20152;-56
2023/08/29 11:07:46;;;;;;;11.77;6.18;;;19.40;99.90;;;;;;7340661;32;20449;-56
2023/08/29 11:12:08;;;;;;;6.37;3.70;;;19.70;99.90;;;;;;7353924;32;20108;-56
2023/08/29 11:16:10;;;;;;;7.55;2.60;;;19.80;99.90;;;;;;7351647;32;20103;-56
2023/08/29 11:20:14;;;;;;;6.78;3.40;;;19.60;99.90;;;;;;7355180;32;20498;-56
2023/08/29 11:24:15;;;;;;;6.85;6.03;;;19.40;99.90;;;;;;7348594;32;20100;-57
2023/08/29 11:28:19;;;;;;;11.80;8.48;;;19.20;99.90;;;;;;7359443;32;20236;-57
2023/08/29 11:32:21;;;;;;;12.82;8.35;;;19.00;99.90;;;;;;7343339;32;20203;-57
2023/08/29 11:36:22;;;;;;;9.43;6.12;;;19.00;99.90;;;;;;7348411;32;21151;-57
2023/08/29 11:40:24;;;;;;;31.87;10.57;;;18.90;99.90;;;;;;7358356;32;20131;-57
2023/08/29 11:44:39;;;;;;;12.68;5.20;;;19.00;99.90;;;;;;7348864;32;22446;-57
2023/08/29 11:49:11;;;;;;;8.38;4.18;;;19.20;99.90;;;;;;7339936;32;20430;-57
2023/08/29 11:53:27;;;;;;;8.30;4.30;;;19.60;99.90;;;;;;7348618;32;20271;-56
2023/08/29 11:57:30;;;;;;;5.72;3.10;;;19.60;99.90;;;;;;7355715;32;20130;-56
2023/08/29 12:01:36;;;;;;;4.12;1.92;;;19.70;99.90;;;;;;7350462;32;20705;-56
2023/08/29 12:05:40;;;;;;;4.17;1.40;;;20.30;99.90;;;;;;7339313;32;20104;-56
2023/08/29 12:09:43;;;;;;;3.00;1.08;;;20.40;99.90;;;;;;7347467;32;20103;-57
2023/08/29 12:14:05;;;;;;;4.03;1.80;;;20.40;99.90;;;;;;7348828;32;20107;-57
2023/08/29 12:18:07;;;;;;;3.97;1.58;;;20.30;99.90;;;;;;7343949;32;20542;-57
2023/08/29 12:22:10;;;;;;;4.70;1.48;;;20.20;99.90;;;;;;7344326;32;20192;-57
2023/08/29 12:26:12;;;;;;;2.97;1.10;;;20.20;99.90;;;;;;7346991;32;20536;-57
2023/08/29 12:30:14;;;;;;;3.33;1.00;;;20.10;99.90;;;;;;7350372;32;20099;-58
2023/08/29 12:34:16;;;;;;;3.62;2.40;;;20.10;99.90;;;;;;7343946;32;20190;-58
2023/08/29 12:38:18;;;;;;;7.30;2.35;;;20.20;99.90;;;;;;7340545;32;22146;-58
2023/08/29 12:42:20;;;;;;;3.53;1.50;;;20.20;99.90;;;;;;7337633;32;20445;-58
2023/08/29 12:46:21;;;;;;;4.43;1.42;;;20.30;99.90;;;;;;7341005;32;20230;-58
2023/08/29 12:50:23;;;;;;;2.97;1.20;;;20.40;99.90;;;;;;7351474;32;20123;-58
2023/08/29 12:54:28;;;;;;;3.92;1.23;;;20.20;99.90;;;;;;7342041;32;20210;-58
2023/08/29 12:58:29;;;;;;;2.78;0.80;;;20.10;99.90;;;;;;7349405;32;20138;-58
2023/08/29 13:02:31;;;;;;;2.08;0.80;;;19.80;99.90;;;;;;7348210;32;20099;-58
2023/08/29 13:06:33;;;;;;;1.30;0.60;;;19.80;99.90;;;;;;7355070;32;20461;-58
2023/08/29 13:10:35;;;;;;;3.05;0.77;;;19.80;99.90;;;;;;7342307;32;20226;-58
2023/08/29 13:14:37;;;;;;;3.08;1.30;;;19.80;99.90;;;;;;7342879;32;20960;-58
2023/08/29 13:18:42;;;;;;;3.80;1.70;;;19.60;99.90;;;;;;7353074;32;20115;-59
2023/08/29 13:22:46;;;;;;;6.28;2.30;;;19.70;99.90;;;;;;7352602;32;20236;-58
2023/08/29 13:26:48;;;;;;;4.62;2.30;;;19.80;99.90;;;;;;7347638;32;20095;-58
2023/08/29 13:30:50;;;;;;;4.20;1.95;;;19.80;99.90;;;;;;7354001;32;20114;-57
2023/08/29 13:34:52;;;;;;;5.40;1.70;;;20.00;99.90;;;;;;7350653;32;20224;-57
2023/08/29 13:38:53;;;;;;;5.07;1.77;;;20.30;99.90;;;;;;7355767;32;20108;-58
2023/08/29 13:42:55;;;;;;;3.60;1.40;;;20.40;99.90;;;;;;7345488;32;20187;-58
2023/08/29 13:46:57;;;;;;;5.95;1.70;;;20.20;99.90;;;;;;7352290;32;20175;-58
2023/08/29 13:50:58;;;;;;;4.28;1.42;;;20.20;99.90;;;;;;7346077;32;20190;-59
2023/08/29 13:55:00;;;;;;;3.22;1.17;;;20.60;99.90;;;;;;7354574;32;20174;-59
2023/08/29 13:59:05;;;;;;;4.15;1.80;;;20.80;99.90;;;;;;7342146;32;20299;-58
2023/08/29 14:03:07;;;;;;;2.92;1.80;;;21.00;99.90;;;;;;7352754;32;20103;-61
2023/08/29 14:07:09;;;;;;;3.75;1.75;;;21.20;99.90;;;;;;7352579;32;20241;-58
2023/08/29 14:11:11;;;;;;;2.62;1.55;;;21.40;99.90;;;;;;7349826;32;20126;-58
2023/08/29 14:15:12;;;;;;;3.37;1.02;;;21.70;99.90;;;;;;7348156;32;20422;-58
2023/08/29 14:19:18;;;;;;;2.92;1.20;;;22.20;99.90;;;;;;7353483;32;22200;-59
2023/08/29 14:23:20;;;;;;;5.95;1.30;;;22.20;99.90;;;;;;7344434;32;20115;-59
2023/08/29 14:27:22;;;;;;;1.87;1.20;;;22.30;99.90;;;;;;7229144;32;20259;-59
2023/08/29 14:31:24;;;;;;;2.85;1.02;;;22.30;99.90;;;;;;7335065;32;20462;-58
2023/08/29 14:35:26;;;;;;;3.05;1.10;;;22.60;99.90;;;;;;7349453;32;20176;-58
2023/08/29 14:39:27;;;;;;;5.75;1.58;;;22.90;99.90;;;;;;7349799;32;20122;-58
2023/08/29 14:43:29;;;;;;;3.25;0.88;;;23.10;99.90;;;;;;7351299;32;20119;-57
2023/08/29 14:47:31;;;;;;;1.92;0.90;;;23.30;99.90;;;;;;7350440;32;20305;-58
2023/08/29 14:51:33;;;;;;;3.40;0.95;;;23.30;99.90;;;;;;7350436;32;21219;-58
2023/08/29 14:55:34;;;;;;;3.75;1.87;;;23.10;99.90;;;;;;7344413;32;20114;-57
2023/08/29 14:59:36;;;;;;;3.30;1.80;;;22.80;99.90;;;;;;7350080;32;20170;-58
2023/08/29 15:03:39;;;;;;;2.53;1.85;;;22.40;99.90;;;;;;7343259;32;20221;-58
2023/08/29 15:07:42;;;;;;;3.67;2.03;;;21.90;99.90;;;;;;7344868;32;20121;-57
2023/08/29 15:11:43;;;;;;;2.85;2.03;;;21.70;99.90;;;;;;7298455;32;20180;-57
2023/08/29 15:15:45;;;;;;;3.60;2.25;;;21.60;99.90;;;;;;7341141;32;20108;-57
2023/08/29 15:19:47;;;;;;;3.47;2.10;;;21.30;99.90;;;;;;7347099;32;20187;-57
2023/08/29 15:23:49;;;;;;;3.70;1.95;;;21.50;99.90;;;;;;7349141;32;20209;-57
2023/08/29 15:27:51;;;;;;;5.20;1.80;;;21.30;99.90;;;;;;7347705;32;20127;-57
2023/08/29 15:31:53;;;;;;;2.85;2.22;;;21.10;99.90;;;;;;7354026;32;20326;-57
2023/08/29 15:35:55;;;;;;;5.72;1.70;;;20.90;99.90;;;;;;7342919;32;20095;-58
2023/08/29 15:39:56;;;;;;;3.03;1.90;;;20.80;99.90;;;;;;7344253;32;20212;-57
2023/08/29 15:43:58;;;;;;;4.75;1.83;;;20.70;99.90;;;;;;7358431;32;20776;-57
2023/08/29 15:48:00;;;;;;;4.53;1.70;;;20.70;99.90;;;;;;7346124;32;20226;-57
2023/08/29 15:52:02;;;;;;;5.55;1.90;;;20.40;99.90;;;;;;7342929;32;20280;-57
2023/08/29 15:56:07;;;;;;;3.45;1.40;;;20.50;99.90;;;;;;7354362;32;20103;-58
2023/08/29 16:00:14;;;;;;;3.40;1.40;;;20.20;99.90;;;;;;7341549;32;20171;-57
2023/08/29 16:04:15;;;;;;;2.03;1.37;;;20.10;99.90;;;;;;7347566;32;20151;-57
2023/08/29 16:08:17;;;;;;;3.35;1.40;;;19.90;99.90;;;;;;7349949;32;20152;-57
2023/08/29 16:12:19;;;;;;;1.95;1.40;;;19.70;99.90;;;;;;7350803;32;20482;-57
2023/08/29 16:16:20;;;;;;;3.75;1.62;;;19.60;99.90;;;;;;7340707;32;20104;-58
2023/08/29 16:20:23;;;;;;;2.08;1.20;;;19.60;99.90;;;;;;7350556;32;20524;-58
2023/08/29 16:24:25;;;;;;;2.60;1.10;;;19.70;99.90;;;;;;7351223;32;20107;-57
2023/08/29 16:28:28;;;;;;;2.72;1.30;;;19.60;99.90;;;;;;7349063;32;20214;-57
2023/08/29 16:32:30;;;;;;;3.20;1.27;;;19.50;99.90;;;;;;7350386;32;20144;-57
2023/08/29 16:36:31;;;;;;;4.20;1.20;;;19.60;99.90;;;;;;7347563;32;20098;-57
2023/08/29 16:40:33;;;;;;;1.83;1.20;;;19.70;99.90;;;;;;7350446;32;20194;-57
2023/08/29 16:44:35;;;;;;;2.45;0.95;;;19.90;99.90;;;;;;7344886;32;20160;-56
2023/08/29 16:48:37;;;;;;;1.70;0.70;;;19.60;99.90;;;;;;7344300;32;20115;-56
2023/08/29 16:52:39;;;;;;;2.17;0.70;;;19.60;99.90;;;;;;7350490;32;20151;-56
2023/08/29 16:56:41;;;;;;;0.90;0.52;;;19.40;99.90;;;;;;7341447;32;20130;-56
2023/08/29 17:00:43;;;;;;;2.20;0.60;;;19.30;99.90;;;;;;7342520;32;20122;-56
2023/08/29 17:04:46;;;;;;;2.22;0.68;;;19.10;99.90;;;;;;7335423;32;20186;-57
2023/08/29 17:08:47;;;;;;;2.17;0.60;;;19.10;99.90;;;;;;7350833;32;20163;-57
2023/08/29 17:12:49;;;;;;;1.70;0.60;;;18.90;99.90;;;;;;7354370;32;20110;-56
2023/08/29 17:16:51;;;;;;;2.75;0.70;;;18.80;99.90;;;;;;7353500;32;20239;-57
2023/08/29 17:20:53;;;;;;;3.42;1.00;;;18.70;99.90;;;;;;7347134;32;20825;-57
2023/08/29 17:24:56;;;;;;;2.95;0.90;;;18.40;99.90;;;;;;7354720;32;20110;-57
2023/08/29 17:28:58;;;;;;;2.92;1.05;;;18.20;99.90;;;;;;7354845;32;20107;-56
2023/08/29 17:33:01;;;;;;;1.27;0.80;;;18.00;99.90;;;;;;7349849;32;20247;-57
2023/08/29 17:37:03;;;;;;;0.98;0.80;;;17.70;99.90;;;;;;7358593;32;20745;-57
2023/08/29 17:41:05;;;;;;;1.58;1.00;;;17.50;99.90;;;;;;7355908;32;20253;-57
2023/08/29 17:45:08;;;;;;;2.62;1.00;;;17.30;99.90;;;;;;7343642;32;20149;-58
2023/08/29 17:49:10;;;;;;;1.50;1.08;;;17.10;99.90;;;;;;7349229;32;20218;-56
2023/08/29 17:53:12;;;;;;;3.92;0.95;;;16.90;99.90;;;;;;7355036;32;20122;-57
2023/08/29 17:57:14;;;;;;;1.90;0.70;;;16.70;99.90;;;;;;7354976;32;20486;-57
2023/08/29 18:01:16;;;;;;;1.62;1.00;;;16.50;99.90;;;;;;7342999;32;20151;-56
2023/08/29 18:05:18;;;;;;;1.55;0.80;;;16.40;99.90;;;;;;7351007;32;20214;-57
2023/08/29 18:09:19;;;;;;;5.12;1.12;;;16.20;99.90;;;;;;7347310;32;20623;-57
2023/08/29 18:13:22;;;;;;;2.15;1.10;;;16.10;99.90;;;;;;7351541;32;20162;-57
2023/08/29 18:17:24;;;;;;;3.05;1.30;;;16.00;99.90;;;;;;7348760;32;20207;-56
2023/08/29 18:21:26;;;;;;;1.30;1.00;;;15.90;99.90;;;;;;7359671;32;20103;-57
2023/08/29 18:25:29;;;;;;;2.75;1.00;;;15.80;99.90;;;;;;7351634;32;20099;-57
2023/08/29 18:29:31;;;;;;;7.22;1.20;;;15.70;99.90;;;;;;7321219;32;20095;-58
2023/08/29 18:33:35;;;;;;;3.15;1.50;;;15.60;99.90;;;;;;7337567;32;20218;-57
2023/08/29 18:37:37;;;;;;;3.50;1.85;;;15.50;99.90;;;;;;7353728;32;20091;-56
2023/08/29 18:41:38;;;;;;;3.92;2.08;;;15.50;99.90;;;;;;7353923;32;20129;-56
2023/08/29 18:45:40;;;;;;;4.18;2.03;;;15.40;99.90;;;;;;7340012;32;20343;-56
2023/08/29 18:49:42;;;;;;;8.45;3.00;;;15.40;99.90;;;;;;7348033;32;20677;-56
2023/08/29 18:53:44;;;;;;;7.10;3.12;;;15.40;99.90;;;;;;7346893;32;20197;-56
2023/08/29 18:57:46;;;;;;;5.32;2.72;;;15.40;99.90;;;;;;7354288;32;20174;-57
2023/08/29 19:01:47;;;;;;;6.07;3.20;;;15.40;99.90;;;;;;7308034;32;20232;-56
2023/08/29 19:05:49;;;;;;;8.05;3.80;;;15.40;99.90;;;;;;7279850;32;20160;-55
2023/08/29 19:09:51;;;;;;;5.78;3.62;;;15.40;99.90;;;;;;7346053;32;20119;-56
2023/08/29 19:13:53;;;;;;;5.20;2.85;;;15.40;99.90;;;;;;7350349;32;20099;-56
2023/08/29 19:17:55;;;;;;;4.70;2.60;;;15.60;99.90;;;;;;7346017;32;20502;-56
2023/08/29 19:21:57;;;;;;;7.75;3.22;;;15.70;99.90;;;;;;7334444;32;21803;-57
2023/08/29 19:25:58;;;;;;;4.05;2.95;;;15.70;99.90;;;;;;7316020;32;20103;-56
2023/08/29 19:30:04;;;;;;;4.95;3.25;;;15.70;99.90;;;;;;7341183;32;20366;-56
2023/08/29 19:34:05;;;;;;;4.57;3.03;;;15.70;99.90;;;;;;7347563;32;20130;-56
2023/08/29 19:38:07;;;;;;;5.70;3.20;;;15.60;99.90;;;;;;7346138;32;20536;-56
2023/08/29 19:42:10;;;;;;;4.95;3.15;;;15.60;99.90;;;;;;7346466;32;20091;-56
2023/08/29 19:46:11;;;;;;;7.10;4.20;;;15.50;99.90;;;;;;7350372;32;20122;-56
2023/08/29 19:50:15;;;;;;;6.57;4.12;;;15.40;99.90;;;;;;7348603;32;20125;-56
2023/08/29 19:54:16;;;;;;;5.32;3.95;;;15.40;99.90;;;;;;7349819;32;20183;-56
2023/08/29 19:58:19;;;;;;;6.95;4.43;;;15.30;99.90;;;;;;7349630;32;20194;-56
2023/08/29 20:02:21;;;;;;;4.82;4.32;;;15.40;99.90;;;;;;7346472;32;20692;-56
2023/08/29 20:06:25;;;;;;;4.80;3.92;;;15.40;99.90;;;;;;7346896;32;20122;-56
2023/08/29 20:10:28;;;;;;;7.35;4.65;;;15.40;99.90;;;;;;7348414;32;20472;-57
2023/08/29 20:14:30;;;;;;;8.05;4.93;;;15.40;99.90;;;;;;7344725;32;20170;-56
2023/08/29 20:18:31;;;;;;;6.35;5.75;;;15.30;99.90;;;;;;7352229;32;20100;-56
2023/08/29 20:22:34;;;;;;;5.85;4.47;;;15.30;99.90;;;;;;7349631;32;20091;-56
2023/08/29 20:26:35;;;;;;;6.65;4.40;;;15.20;99.90;;;;;;7349743;32;20095;-56
2023/08/29 20:30:38;;;;;;;7.12;6.12;;;15.20;99.90;;;;;;7357241;32;20102;-55
2023/08/29 20:34:40;;;;;;;6.22;4.57;;;15.10;99.90;;;;;;7343362;32;20220;-56
2023/08/29 20:38:42;;;;;;;8.65;5.32;;;15.10;99.90;;;;;;7348541;32;20111;-56
2023/08/29 20:42:44;;;;;;;10.80;5.65;;;15.10;99.90;;;;;;7316092;32;20139;-56
2023/08/29 20:46:45;;;;;;;9.50;5.28;;;15.00;99.90;;;;;;7337631;32;20100;-55
2023/08/29 20:50:49;;;;;;;8.27;5.18;;;15.10;99.90;;;;;;7342782;32;20188;-55
2023/08/29 20:54:51;;;;;;;8.90;5.53;;;15.00;99.90;;;;;;7333459;32;20186;-56
2023/08/29 20:58:53;;;;;;;9.95;5.07;;;14.90;99.90;;;;;;7340010;32;20126;-57